Impacts TAF Board INFO
FOR SITUATIONAL AWARENESS. NOT TO BE USED FOR FLIGHT PLANNING PURPOSES.
IDs:

KEWR - Newark Intl, NJ, US

Issued at 2006 UTC 12 Dec 2017
Updated at 2132 UTC 12 Dec 2017
Potential Impact None Slight Moderate High
Time<<13/22Z 13/23Z 14/00Z 14/01Z 14/02Z 14/03Z 14/04Z 14/05Z 14/06Z 14/07Z 14/08Z 14/09Z 14/10Z
Type PRVL PRVL
VIS >6 >6
CIG 50 50
Cover BKN BKN
FltCat VFR VFR
WX -- --
WDir 270 270
WSpd 21 21
WGst 30 30

Raw TAF
KEWR 122006Z 1220/1324 28010KT P6SM VCSH SCT025 BKN040 BKN100
  FM130000 28015G24KT P6SM VCSH SCT025 BKN050 BKN100
  FM130200 30019G29KT P6SM VCSH FEW030 BKN050
  FM130700 28021G32KT P6SM SCT050 BKN100
  FM131300 28022G35KT P6SM BKN050
  FM132100 27021G30KT P6SM BKN050


METAR Board
Radar Display
Forecast Discussion

FOR SITUATIONAL AWARENESS. NOT TO BE USED FOR FLIGHT PLANNING PURPOSES.